sensor_id;sensor_type;location;lat;lon;timestamp;temperature;humidity
39019;DHT22;24786;51.984;5.872;2024-02-26T00:02:16;6.40;99.90
39019;DHT22;24786;51.984;5.872;2024-02-26T00:04:42;6.40;99.90
39019;DHT22;24786;51.984;5.872;2024-02-26T00:07:07;6.40;99.90
39019;DHT22;24786;51.984;5.872;2024-02-26T00:09:33;6.30;99.90
39019;DHT22;24786;51.984;5.872;2024-02-26T00:12:02;6.30;99.90
39019;DHT22;24786;51.984;5.872;2024-02-26T00:14:29;6.30;99.90
39019;DHT22;24786;51.984;5.872;2024-02-26T00:16:55;6.30;99.90
39019;DHT22;24786;51.984;5.872;2024-02-26T00:19:20;6.30;99.90
39019;DHT22;24786;51.984;5.872;2024-02-26T00:21:46;6.30;99.90
39019;DHT22;24786;51.984;5.872;2024-02-26T00:24:12;6.30;99.90
39019;DHT22;24786;51.984;5.872;2024-02-26T00:26:37;6.30;99.90
39019;DHT22;24786;51.984;5.872;2024-02-26T00:29:03;6.30;99.90
39019;DHT22;24786;51.984;5.872;2024-02-26T00:31:28;6.20;99.90
39019;DHT22;24786;51.984;5.872;2024-02-26T00:33:54;6.20;99.90
39019;DHT22;24786;51.984;5.872;2024-02-26T00:36:19;6.20;99.90
39019;DHT22;24786;51.984;5.872;2024-02-26T00:38:45;6.20;99.90
39019;DHT22;24786;51.984;5.872;2024-02-26T00:41:19;6.20;99.90
39019;DHT22;24786;51.984;5.872;2024-02-26T00:43:45;6.20;99.90
39019;DHT22;24786;51.984;5.872;2024-02-26T00:46:10;6.20;99.90
39019;DHT22;24786;51.984;5.872;2024-02-26T00:48:36;6.20;99.90
39019;DHT22;24786;51.984;5.872;2024-02-26T00:51:02;6.20;99.90
39019;DHT22;24786;51.984;5.872;2024-02-26T00:53:30;6.20;99.90
39019;DHT22;24786;51.984;5.872;2024-02-26T00:55:56;6.20;99.90
39019;DHT22;24786;51.984;5.872;2024-02-26T00:58:24;6.20;99.90
39019;DHT22;24786;51.984;5.872;2024-02-26T01:00:49;6.30;99.90
39019;DHT22;24786;51.984;5.872;2024-02-26T01:03:15;6.30;99.90
39019;DHT22;24786;51.984;5.872;2024-02-26T01:05:40;6.30;99.90
39019;DHT22;24786;51.984;5.872;2024-02-26T01:08:06;6.20;99.90
39019;DHT22;24786;51.984;5.872;2024-02-26T01:10:32;6.20;99.90
39019;DHT22;24786;51.984;5.872;2024-02-26T01:12:57;6.30;99.90
39019;DHT22;24786;51.984;5.872;2024-02-26T01:15:23;6.20;99.90
39019;DHT22;24786;51.984;5.872;2024-02-26T01:17:50;6.20;99.90
39019;DHT22;24786;51.984;5.872;2024-02-26T01:20:16;6.20;99.90
39019;DHT22;24786;51.984;5.872;2024-02-26T01:22:42;6.20;99.90
39019;DHT22;24786;51.984;5.872;2024-02-26T01:25:08;6.20;99.90
39019;DHT22;24786;51.984;5.872;2024-02-26T01:27:35;6.10;99.90
39019;DHT22;24786;51.984;5.872;2024-02-26T01:30:04;6.10;99.90
39019;DHT22;24786;51.984;5.872;2024-02-26T01:32:30;6.10;99.90
39019;DHT22;24786;51.984;5.872;2024-02-26T01:34:56;6.00;99.90
39019;DHT22;24786;51.984;5.872;2024-02-26T01:37:22;6.00;99.90
39019;DHT22;24786;51.984;5.872;2024-02-26T01:39:47;6.00;99.90
39019;DHT22;24786;51.984;5.872;2024-02-26T01:42:13;6.10;99.90
39019;DHT22;24786;51.984;5.872;2024-02-26T01:44:38;6.00;99.90
39019;DHT22;24786;51.984;5.872;2024-02-26T01:47:05;6.10;99.90
39019;DHT22;24786;51.984;5.872;2024-02-26T01:49:34;6.00;99.90
39019;DHT22;24786;51.984;5.872;2024-02-26T01:52:00;6.10;99.90
39019;DHT22;24786;51.984;5.872;2024-02-26T01:54:27;6.00;99.90
39019;DHT22;24786;51.984;5.872;2024-02-26T01:56:53;6.00;99.90
39019;DHT22;24786;51.984;5.872;2024-02-26T01:59:19;6.00;99.90
39019;DHT22;24786;51.984;5.872;2024-02-26T02:01:48;6.10;99.90
39019;DHT22;24786;51.984;5.872;2024-02-26T02:04:16;6.00;99.90
39019;DHT22;24786;51.984;5.872;2024-02-26T02:06:42;6.00;99.90
39019;DHT22;24786;51.984;5.872;2024-02-26T02:09:10;6.00;99.90
39019;DHT22;24786;51.984;5.872;2024-02-26T02:11:36;6.00;99.90
39019;DHT22;24786;51.984;5.872;2024-02-26T02:14:02;6.00;99.90
39019;DHT22;24786;51.984;5.872;2024-02-26T02:16:28;6.00;99.90
39019;DHT22;24786;51.984;5.872;2024-02-26T02:18:53;6.00;99.90
39019;DHT22;24786;51.984;5.872;2024-02-26T02:21:19;6.00;99.90
39019;DHT22;24786;51.984;5.872;2024-02-26T02:23:44;6.00;99.90
39019;DHT22;24786;51.984;5.872;2024-02-26T02:26:12;6.10;99.90
39019;DHT22;24786;51.984;5.872;2024-02-26T02:28:39;6.10;99.90
39019;DHT22;24786;51.984;5.872;2024-02-26T02:31:05;6.10;99.90
39019;DHT22;24786;51.984;5.872;2024-02-26T02:33:32;6.10;99.90
39019;DHT22;24786;51.984;5.872;2024-02-26T02:35:58;6.10;99.90
39019;DHT22;24786;51.984;5.872;2024-02-26T02:38:24;6.10;99.90
39019;DHT22;24786;51.984;5.872;2024-02-26T02:40:51;6.10;99.90
39019;DHT22;24786;51.984;5.872;2024-02-26T02:43:17;6.20;99.90
39019;DHT22;24786;51.984;5.872;2024-02-26T02:45:42;6.20;99.90
39019;DHT22;24786;51.984;5.872;2024-02-26T02:48:08;6.20;99.90
39019;DHT22;24786;51.984;5.872;2024-02-26T02:50:34;6.20;99.90
39019;DHT22;24786;51.984;5.872;2024-02-26T02:52:59;6.20;99.90
39019;DHT22;24786;51.984;5.872;2024-02-26T02:55:25;6.20;99.90
39019;DHT22;24786;51.984;5.872;2024-02-26T02:57:50;6.20;99.90
39019;DHT22;24786;51.984;5.872;2024-02-26T03:00:16;6.20;99.90
39019;DHT22;24786;51.984;5.872;2024-02-26T03:02:42;6.20;99.90
39019;DHT22;24786;51.984;5.872;2024-02-26T03:05:08;6.20;99.90
39019;DHT22;24786;51.984;5.872;2024-02-26T03:07:34;6.20;99.90
39019;DHT22;24786;51.984;5.872;2024-02-26T03:09:59;6.20;99.90
39019;DHT22;24786;51.984;5.872;2024-02-26T03:12:25;6.20;99.90
39019;DHT22;24786;51.984;5.872;2024-02-26T03:14:51;6.20;99.90
39019;DHT22;24786;51.984;5.872;2024-02-26T03:17:17;6.20;99.90
39019;DHT22;24786;51.984;5.872;2024-02-26T03:19:44;6.20;99.90
39019;DHT22;24786;51.984;5.872;2024-02-26T03:22:12;6.30;99.90
39019;DHT22;24786;51.984;5.872;2024-02-26T03:24:38;6.30;99.90
39019;DHT22;24786;51.984;5.872;2024-02-26T03:27:04;6.30;99.90
39019;DHT22;24786;51.984;5.872;2024-02-26T03:29:37;6.30;99.90
39019;DHT22;24786;51.984;5.872;2024-02-26T03:32:04;6.30;99.90
39019;DHT22;24786;51.984;5.872;2024-02-26T03:34:29;6.30;99.90
39019;DHT22;24786;51.984;5.872;2024-02-26T03:36:56;6.30;99.90
39019;DHT22;24786;51.984;5.872;2024-02-26T03:39:22;6.30;99.90
39019;DHT22;24786;51.984;5.872;2024-02-26T03:41:48;6.30;99.90
39019;DHT22;24786;51.984;5.872;2024-02-26T03:44:14;6.30;99.90
39019;DHT22;24786;51.984;5.872;2024-02-26T03:46:40;6.30;99.90
39019;DHT22;24786;51.984;5.872;2024-02-26T03:49:08;6.30;99.90
39019;DHT22;24786;51.984;5.872;2024-02-26T03:51:34;6.20;99.90
39019;DHT22;24786;51.984;5.872;2024-02-26T03:54:00;6.20;99.90
39019;DHT22;24786;51.984;5.872;2024-02-26T03:56:26;6.20;99.90
39019;DHT22;24786;51.984;5.872;2024-02-26T03:58:52;6.10;99.90
39019;DHT22;24786;51.984;5.872;2024-02-26T04:01:18;6.10;99.90
39019;DHT22;24786;51.984;5.872;2024-02-26T04:03:43;6.00;99.90
39019;DHT22;24786;51.984;5.872;2024-02-26T04:06:09;6.00;99.90
39019;DHT22;24786;51.984;5.872;2024-02-26T04:08:36;5.90;99.90
39019;DHT22;24786;51.984;5.872;2024-02-26T04:11:02;5.90;99.90
39019;DHT22;24786;51.984;5.872;2024-02-26T04:13:35;5.90;99.90
39019;DHT22;24786;51.984;5.872;2024-02-26T04:16:01;5.90;99.90
39019;DHT22;24786;51.984;5.872;2024-02-26T04:18:29;5.90;99.90
39019;DHT22;24786;51.984;5.872;2024-02-26T04:20:55;5.90;99.90
39019;DHT22;24786;51.984;5.872;2024-02-26T04:23:20;5.80;99.90
39019;DHT22;24786;51.984;5.872;2024-02-26T04:25:46;5.80;99.90
39019;DHT22;24786;51.984;5.872;2024-02-26T04:28:12;5.80;99.90
39019;DHT22;24786;51.984;5.872;2024-02-26T04:30:38;5.80;99.90
39019;DHT22;24786;51.984;5.872;2024-02-26T04:33:03;5.70;99.90
39019;DHT22;24786;51.984;5.872;2024-02-26T04:35:29;5.80;99.90
39019;DHT22;24786;51.984;5.872;2024-02-26T04:37:55;5.70;99.90
39019;DHT22;24786;51.984;5.872;2024-02-26T04:40:20;5.70;99.90
39019;DHT22;24786;51.984;5.872;2024-02-26T04:42:46;5.70;99.90
39019;DHT22;24786;51.984;5.872;2024-02-26T04:45:11;5.70;99.90
39019;DHT22;24786;51.984;5.872;2024-02-26T04:47:37;5.60;99.90
39019;DHT22;24786;51.984;5.872;2024-02-26T04:50:03;5.60;99.90
39019;DHT22;24786;51.984;5.872;2024-02-26T04:52:28;5.60;99.90
39019;DHT22;24786;51.984;5.872;2024-02-26T04:54:54;5.60;99.90
39019;DHT22;24786;51.984;5.872;2024-02-26T04:57:21;5.60;99.90
39019;DHT22;24786;51.984;5.872;2024-02-26T04:59:46;5.60;99.90
39019;DHT22;24786;51.984;5.872;2024-02-26T05:02:12;5.60;99.90
39019;DHT22;24786;51.984;5.872;2024-02-26T05:04:38;5.50;99.90
39019;DHT22;24786;51.984;5.872;2024-02-26T05:07:04;5.50;99.90
39019;DHT22;24786;51.984;5.872;2024-02-26T05:09:30;5.50;99.90
39019;DHT22;24786;51.984;5.872;2024-02-26T05:11:55;5.50;99.90
39019;DHT22;24786;51.984;5.872;2024-02-26T05:14:21;5.50;99.90
39019;DHT22;24786;51.984;5.872;2024-02-26T05:16:47;5.50;99.90
39019;DHT22;24786;51.984;5.872;2024-02-26T05:19:13;5.50;99.90
39019;DHT22;24786;51.984;5.872;2024-02-26T05:21:38;5.50;99.90
39019;DHT22;24786;51.984;5.872;2024-02-26T05:24:05;5.50;99.90
39019;DHT22;24786;51.984;5.872;2024-02-26T05:26:31;5.50;99.90
39019;DHT22;24786;51.984;5.872;2024-02-26T05:28:57;5.50;99.90
39019;DHT22;24786;51.984;5.872;2024-02-26T05:31:25;5.50;99.90
39019;DHT22;24786;51.984;5.872;2024-02-26T05:33:51;5.40;99.90
39019;DHT22;24786;51.984;5.872;2024-02-26T05:36:20;5.40;99.90
39019;DHT22;24786;51.984;5.872;2024-02-26T05:38:48;5.40;99.90
39019;DHT22;24786;51.984;5.872;2024-02-26T05:41:15;5.40;99.90
39019;DHT22;24786;51.984;5.872;2024-02-26T05:43:41;5.40;99.90
39019;DHT22;24786;51.984;5.872;2024-02-26T05:46:07;5.30;99.90
39019;DHT22;24786;51.984;5.872;2024-02-26T05:48:32;5.30;99.90
39019;DHT22;24786;51.984;5.872;2024-02-26T05:50:58;5.30;99.90
39019;DHT22;24786;51.984;5.872;2024-02-26T05:53:24;5.30;99.90
39019;DHT22;24786;51.984;5.872;2024-02-26T05:55:49;5.30;99.90
39019;DHT22;24786;51.984;5.872;2024-02-26T05:58:15;5.30;99.90
39019;DHT22;24786;51.984;5.872;2024-02-26T06:00:40;5.30;99.90
39019;DHT22;24786;51.984;5.872;2024-02-26T06:03:06;5.30;99.90
39019;DHT22;24786;51.984;5.872;2024-02-26T06:05:32;5.20;99.90
39019;DHT22;24786;51.984;5.872;2024-02-26T06:07:57;5.20;99.90
39019;DHT22;24786;51.984;5.872;2024-02-26T06:10:23;5.20;99.90
39019;DHT22;24786;51.984;5.872;2024-02-26T06:12:48;5.30;99.90
39019;DHT22;24786;51.984;5.872;2024-02-26T06:15:14;5.30;99.90
39019;DHT22;24786;51.984;5.872;2024-02-26T06:17:39;5.30;99.90
39019;DHT22;24786;51.984;5.872;2024-02-26T06:20:06;5.30;99.90
39019;DHT22;24786;51.984;5.872;2024-02-26T06:22:32;5.30;99.90
39019;DHT22;24786;51.984;5.872;2024-02-26T06:24:57;5.30;99.90
39019;DHT22;24786;51.984;5.872;2024-02-26T06:27:23;5.30;99.90
39019;DHT22;24786;51.984;5.872;2024-02-26T06:29:50;5.30;99.90
39019;DHT22;24786;51.984;5.872;2024-02-26T06:32:15;5.30;99.90
39019;DHT22;24786;51.984;5.872;2024-02-26T06:34:41;5.30;99.90
39019;DHT22;24786;51.984;5.872;2024-02-26T06:37:07;5.30;99.90
39019;DHT22;24786;51.984;5.872;2024-02-26T06:39:33;5.40;99.90
39019;DHT22;24786;51.984;5.872;2024-02-26T06:41:58;5.40;99.90
39019;DHT22;24786;51.984;5.872;2024-02-26T06:44:27;5.40;99.90
39019;DHT22;24786;51.984;5.872;2024-02-26T06:46:58;5.40;99.90
39019;DHT22;24786;51.984;5.872;2024-02-26T06:49:25;5.30;99.90
39019;DHT22;24786;51.984;5.872;2024-02-26T06:51:50;5.30;99.90
39019;DHT22;24786;51.984;5.872;2024-02-26T06:54:16;5.40;99.90
39019;DHT22;24786;51.984;5.872;2024-02-26T06:56:41;5.40;99.90
39019;DHT22;24786;51.984;5.872;2024-02-26T06:59:07;5.40;99.90
39019;DHT22;24786;51.984;5.872;2024-02-26T07:01:32;5.30;99.90
39019;DHT22;24786;51.984;5.872;2024-02-26T07:03:58;5.30;99.90
39019;DHT22;24786;51.984;5.872;2024-02-26T07:06:23;5.30;99.90
39019;DHT22;24786;51.984;5.872;2024-02-26T07:08:49;5.30;99.90
39019;DHT22;24786;51.984;5.872;2024-02-26T07:11:14;5.30;99.90
39019;DHT22;24786;51.984;5.872;2024-02-26T07:13:40;5.30;99.90
39019;DHT22;24786;51.984;5.872;2024-02-26T07:16:06;5.30;99.90
39019;DHT22;24786;51.984;5.872;2024-02-26T07:18:34;5.30;99.90
39019;DHT22;24786;51.984;5.872;2024-02-26T07:21:02;5.30;99.90
39019;DHT22;24786;51.984;5.872;2024-02-26T07:23:27;5.30;99.90
39019;DHT22;24786;51.984;5.872;2024-02-26T07:25:53;5.30;99.90
39019;DHT22;24786;51.984;5.872;2024-02-26T07:28:19;5.30;99.90
39019;DHT22;24786;51.984;5.872;2024-02-26T07:30:45;5.30;99.90
39019;DHT22;24786;51.984;5.872;2024-02-26T07:33:10;5.30;99.90
39019;DHT22;24786;51.984;5.872;2024-02-26T07:35:36;5.30;99.90
39019;DHT22;24786;51.984;5.872;2024-02-26T07:38:04;5.30;99.90
39019;DHT22;24786;51.984;5.872;2024-02-26T07:40:30;5.30;99.90
39019;DHT22;24786;51.984;5.872;2024-02-26T07:42:56;5.40;99.90
39019;DHT22;24786;51.984;5.872;2024-02-26T07:45:21;5.30;99.90
39019;DHT22;24786;51.984;5.872;2024-02-26T07:47:47;5.30;99.90
39019;DHT22;24786;51.984;5.872;2024-02-26T07:50:13;5.30;99.90
39019;DHT22;24786;51.984;5.872;2024-02-26T07:52:39;5.30;99.90
39019;DHT22;24786;51.984;5.872;2024-02-26T07:55:05;5.30;99.90
39019;DHT22;24786;51.984;5.872;2024-02-26T07:57:32;5.30;99.90
39019;DHT22;24786;51.984;5.872;2024-02-26T08:00:02;5.30;99.90
39019;DHT22;24786;51.984;5.872;2024-02-26T08:02:28;5.30;99.90
39019;DHT22;24786;51.984;5.872;2024-02-26T08:04:53;5.30;99.90
39019;DHT22;24786;51.984;5.872;2024-02-26T08:07:19;5.30;99.90
39019;DHT22;24786;51.984;5.872;2024-02-26T08:09:46;5.30;99.90
39019;DHT22;24786;51.984;5.872;2024-02-26T08:12:12;5.30;99.90
39019;DHT22;24786;51.984;5.872;2024-02-26T08:14:38;5.30;99.90
39019;DHT22;24786;51.984;5.872;2024-02-26T08:17:03;5.40;99.90
39019;DHT22;24786;51.984;5.872;2024-02-26T08:19:29;5.40;99.90
39019;DHT22;24786;51.984;5.872;2024-02-26T08:21:54;5.30;99.90
39019;DHT22;24786;51.984;5.872;2024-02-26T08:24:20;5.30;99.90
39019;DHT22;24786;51.984;5.872;2024-02-26T08:26:46;5.30;99.90
39019;DHT22;24786;51.984;5.872;2024-02-26T08:29:11;5.30;99.90
39019;DHT22;24786;51.984;5.872;2024-02-26T08:31:37;5.30;99.90
39019;DHT22;24786;51.984;5.872;2024-02-26T08:34:03;5.30;99.90
39019;DHT22;24786;51.984;5.872;2024-02-26T08:36:30;5.40;99.90
39019;DHT22;24786;51.984;5.872;2024-02-26T08:38:55;5.40;99.90
39019;DHT22;24786;51.984;5.872;2024-02-26T08:41:21;5.40;99.90
39019;DHT22;24786;51.984;5.872;2024-02-26T08:43:46;5.40;99.90
39019;DHT22;24786;51.984;5.872;2024-02-26T08:46:15;5.40;99.90
39019;DHT22;24786;51.984;5.872;2024-02-26T08:48:40;5.40;99.90
39019;DHT22;24786;51.984;5.872;2024-02-26T08:51:07;5.40;99.90
39019;DHT22;24786;51.984;5.872;2024-02-26T08:53:33;5.40;99.90
39019;DHT22;24786;51.984;5.872;2024-02-26T08:55:58;5.40;99.90
39019;DHT22;24786;51.984;5.872;2024-02-26T08:58:24;5.40;99.90
39019;DHT22;24786;51.984;5.872;2024-02-26T09:00:50;5.40;99.90
39019;DHT22;24786;51.984;5.872;2024-02-26T09:03:16;5.40;99.90
39019;DHT22;24786;51.984;5.872;2024-02-26T09:05:41;5.50;99.90
39019;DHT22;24786;51.984;5.872;2024-02-26T09:08:07;5.40;99.90
39019;DHT22;24786;51.984;5.872;2024-02-26T09:10:33;5.40;99.90
39019;DHT22;24786;51.984;5.872;2024-02-26T09:12:58;5.40;99.90
39019;DHT22;24786;51.984;5.872;2024-02-26T09:15:24;5.40;99.90
39019;DHT22;24786;51.984;5.872;2024-02-26T09:17:49;5.40;99.90
39019;DHT22;24786;51.984;5.872;2024-02-26T09:20:16;5.50;99.90
39019;DHT22;24786;51.984;5.872;2024-02-26T09:22:48;5.40;99.90
39019;DHT22;24786;51.984;5.872;2024-02-26T09:25:14;5.50;99.90
39019;DHT22;24786;51.984;5.872;2024-02-26T09:27:43;5.50;99.90
39019;DHT22;24786;51.984;5.872;2024-02-26T09:30:12;5.50;99.90
39019;DHT22;24786;51.984;5.872;2024-02-26T09:32:38;5.50;99.90
39019;DHT22;24786;51.984;5.872;2024-02-26T09:35:04;5.50;99.90
39019;DHT22;24786;51.984;5.872;2024-02-26T09:37:30;5.50;99.90
39019;DHT22;24786;51.984;5.872;2024-02-26T09:39:56;5.50;99.90
39019;DHT22;24786;51.984;5.872;2024-02-26T09:42:25;5.50;99.90
39019;DHT22;24786;51.984;5.872;2024-02-26T09:44:51;5.60;99.90
39019;DHT22;24786;51.984;5.872;2024-02-26T09:47:19;5.60;99.90
39019;DHT22;24786;51.984;5.872;2024-02-26T09:49:46;5.60;99.90
39019;DHT22;24786;51.984;5.872;2024-02-26T09:52:14;5.60;99.90
39019;DHT22;24786;51.984;5.872;2024-02-26T09:54:41;5.60;99.90
39019;DHT22;24786;51.984;5.872;2024-02-26T09:57:09;5.60;99.90
39019;DHT22;24786;51.984;5.872;2024-02-26T09:59:41;5.60;99.90
39019;DHT22;24786;51.984;5.872;2024-02-26T10:02:12;5.60;99.90
39019;DHT22;24786;51.984;5.872;2024-02-26T10:04:40;5.60;99.90
39019;DHT22;24786;51.984;5.872;2024-02-26T10:07:10;5.60;99.90
39019;DHT22;24786;51.984;5.872;2024-02-26T10:09:36;5.60;99.90
39019;DHT22;24786;51.984;5.872;2024-02-26T10:12:03;5.60;99.90
39019;DHT22;24786;51.984;5.872;2024-02-26T10:14:29;5.70;99.90
39019;DHT22;24786;51.984;5.872;2024-02-26T10:16:54;5.70;99.90
39019;DHT22;24786;51.984;5.872;2024-02-26T10:19:27;5.70;99.90
39019;DHT22;24786;51.984;5.872;2024-02-26T10:22:00;5.70;99.90
39019;DHT22;24786;51.984;5.872;2024-02-26T10:24:26;5.60;99.90
39019;DHT22;24786;51.984;5.872;2024-02-26T10:26:52;5.70;99.90
39019;DHT22;24786;51.984;5.872;2024-02-26T10:29:20;5.60;99.90
39019;DHT22;24786;51.984;5.872;2024-02-26T10:31:45;5.60;99.90
39019;DHT22;24786;51.984;5.872;2024-02-26T10:34:11;5.60;99.90
39019;DHT22;24786;51.984;5.872;2024-02-26T10:36:37;5.70;99.90
39019;DHT22;24786;51.984;5.872;2024-02-26T10:39:04;5.70;99.90
39019;DHT22;24786;51.984;5.872;2024-02-26T10:41:30;5.70;99.90
39019;DHT22;24786;51.984;5.872;2024-02-26T10:43:57;5.70;99.90
39019;DHT22;24786;51.984;5.872;2024-02-26T10:46:22;5.70;99.90
39019;DHT22;24786;51.984;5.872;2024-02-26T10:48:51;5.70;99.90
39019;DHT22;24786;51.984;5.872;2024-02-26T10:51:20;5.70;99.90
39019;DHT22;24786;51.984;5.872;2024-02-26T10:53:48;5.70;99.90
39019;DHT22;24786;51.984;5.872;2024-02-26T10:56:16;5.70;99.90
39019;DHT22;24786;51.984;5.872;2024-02-26T10:58:45;5.70;99.90
39019;DHT22;24786;51.984;5.872;2024-02-26T11:01:12;5.80;99.90
39019;DHT22;24786;51.984;5.872;2024-02-26T11:03:38;5.80;99.90
39019;DHT22;24786;51.984;5.872;2024-02-26T11:06:05;5.80;99.90
39019;DHT22;24786;51.984;5.872;2024-02-26T11:08:31;5.80;99.90
39019;DHT22;24786;51.984;5.872;2024-02-26T11:10:57;5.80;99.90
39019;DHT22;24786;51.984;5.872;2024-02-26T11:13:27;5.80;99.90
39019;DHT22;24786;51.984;5.872;2024-02-26T11:15:55;5.80;99.90
39019;DHT22;24786;51.984;5.872;2024-02-26T11:18:23;5.90;99.90
39019;DHT22;24786;51.984;5.872;2024-02-26T11:20:52;5.80;99.90
39019;DHT22;24786;51.984;5.872;2024-02-26T11:23:22;5.80;99.90
39019;DHT22;24786;51.984;5.872;2024-02-26T11:25:56;5.80;99.90
39019;DHT22;24786;51.984;5.872;2024-02-26T11:28:25;5.80;99.90
39019;DHT22;24786;51.984;5.872;2024-02-26T11:30:53;5.80;99.90
39019;DHT22;24786;51.984;5.872;2024-02-26T11:33:19;5.80;99.90
39019;DHT22;24786;51.984;5.872;2024-02-26T11:35:45;5.80;99.90
39019;DHT22;24786;51.984;5.872;2024-02-26T11:38:19;5.90;99.90
39019;DHT22;24786;51.984;5.872;2024-02-26T11:40:46;5.80;99.90
39019;DHT22;24786;51.984;5.872;2024-02-26T11:43:12;5.90;99.90
39019;DHT22;24786;51.984;5.872;2024-02-26T11:48:13;5.80;99.90
39019;DHT22;24786;51.984;5.872;2024-02-26T11:50:40;5.80;99.90
39019;DHT22;24786;51.984;5.872;2024-02-26T11:53:23;5.80;99.90
39019;DHT22;24786;51.984;5.872;2024-02-26T11:59:04;5.90;99.90
39019;DHT22;24786;51.984;5.872;2024-02-26T12:01:48;5.90;99.90
39019;DHT22;24786;51.984;5.872;2024-02-26T12:06:55;5.90;99.90
39019;DHT22;24786;51.984;5.872;2024-02-26T12:09:56;5.90;99.90
39019;DHT22;24786;51.984;5.872;2024-02-26T12:12:39;5.90;99.90
39019;DHT22;24786;51.984;5.872;2024-02-26T12:15:05;5.90;99.90
39019;DHT22;24786;51.984;5.872;2024-02-26T12:17:36;5.90;99.90
39019;DHT22;24786;51.984;5.872;2024-02-26T12:20:09;5.90;99.90
39019;DHT22;24786;51.984;5.872;2024-02-26T12:22:35;6.00;99.90
39019;DHT22;24786;51.984;5.872;2024-02-26T12:25:02;6.00;99.90
39019;DHT22;24786;51.984;5.872;2024-02-26T12:27:28;6.00;99.90
39019;DHT22;24786;51.984;5.872;2024-02-26T12:29:54;6.00;99.90
39019;DHT22;24786;51.984;5.872;2024-02-26T12:32:19;6.00;99.90
39019;DHT22;24786;51.984;5.872;2024-02-26T12:34:45;6.00;99.90
39019;DHT22;24786;51.984;5.872;2024-02-26T12:37:11;6.00;99.90
39019;DHT22;24786;51.984;5.872;2024-02-26T12:39:37;6.00;99.90
39019;DHT22;24786;51.984;5.872;2024-02-26T12:42:03;6.10;99.90
39019;DHT22;24786;51.984;5.872;2024-02-26T12:44:31;6.10;99.90
39019;DHT22;24786;51.984;5.872;2024-02-26T12:47:03;6.10;99.90
39019;DHT22;24786;51.984;5.872;2024-02-26T12:49:29;6.10;99.90
39019;DHT22;24786;51.984;5.872;2024-02-26T12:51:55;6.20;99.90
39019;DHT22;24786;51.984;5.872;2024-02-26T12:54:27;6.10;99.90
39019;DHT22;24786;51.984;5.872;2024-02-26T12:56:53;6.20;99.90
39019;DHT22;24786;51.984;5.872;2024-02-26T12:59:19;6.20;99.90
39019;DHT22;24786;51.984;5.872;2024-02-26T13:01:45;6.20;99.90
39019;DHT22;24786;51.984;5.872;2024-02-26T13:04:11;6.20;99.90
39019;DHT22;24786;51.984;5.872;2024-02-26T13:06:37;6.20;99.90
39019;DHT22;24786;51.984;5.872;2024-02-26T13:09:03;6.20;99.90
39019;DHT22;24786;51.984;5.872;2024-02-26T13:11:29;6.20;99.90
39019;DHT22;24786;51.984;5.872;2024-02-26T13:13:56;6.20;99.90
39019;DHT22;24786;51.984;5.872;2024-02-26T13:16:24;6.20;99.90
39019;DHT22;24786;51.984;5.872;2024-02-26T13:18:50;6.30;99.90
39019;DHT22;24786;51.984;5.872;2024-02-26T13:21:16;6.30;99.90
39019;DHT22;24786;51.984;5.872;2024-02-26T13:23:43;6.30;99.90
39019;DHT22;24786;51.984;5.872;2024-02-26T13:26:13;6.30;99.90
39019;DHT22;24786;51.984;5.872;2024-02-26T13:28:39;6.30;99.90
39019;DHT22;24786;51.984;5.872;2024-02-26T13:31:05;6.40;99.90
39019;DHT22;24786;51.984;5.872;2024-02-26T13:33:33;6.40;99.90
39019;DHT22;24786;51.984;5.872;2024-02-26T13:35:59;6.40;99.90
39019;DHT22;24786;51.984;5.872;2024-02-26T13:38:25;6.50;99.90
39019;DHT22;24786;51.984;5.872;2024-02-26T13:40:51;6.40;99.90
39019;DHT22;24786;51.984;5.872;2024-02-26T13:43:18;6.40;99.90
39019;DHT22;24786;51.984;5.872;2024-02-26T13:45:44;6.40;99.90
39019;DHT22;24786;51.984;5.872;2024-02-26T13:48:10;6.40;99.90
39019;DHT22;24786;51.984;5.872;2024-02-26T13:50:37;6.40;99.90
39019;DHT22;24786;51.984;5.872;2024-02-26T13:53:03;6.50;99.90
39019;DHT22;24786;51.984;5.872;2024-02-26T13:55:30;6.50;99.90
39019;DHT22;24786;51.984;5.872;2024-02-26T13:57:58;6.50;99.90
39019;DHT22;24786;51.984;5.872;2024-02-26T14:00:25;6.50;99.90
39019;DHT22;24786;51.984;5.872;2024-02-26T14:02:51;6.50;99.90
39019;DHT22;24786;51.984;5.872;2024-02-26T14:05:17;6.50;99.90
39019;DHT22;24786;51.984;5.872;2024-02-26T14:07:42;6.50;99.90
39019;DHT22;24786;51.984;5.872;2024-02-26T14:10:14;6.50;99.90
39019;DHT22;24786;51.984;5.872;2024-02-26T14:12:41;6.50;99.90
39019;DHT22;24786;51.984;5.872;2024-02-26T14:15:07;6.50;99.90
39019;DHT22;24786;51.984;5.872;2024-02-26T14:17:33;6.50;99.90
39019;DHT22;24786;51.984;5.872;2024-02-26T14:19:59;6.50;99.90
39019;DHT22;24786;51.984;5.872;2024-02-26T14:22:25;6.50;99.90
39019;DHT22;24786;51.984;5.872;2024-02-26T14:24:52;6.60;99.90
39019;DHT22;24786;51.984;5.872;2024-02-26T14:27:18;6.50;99.90
39019;DHT22;24786;51.984;5.872;2024-02-26T14:29:46;6.60;99.90
39019;DHT22;24786;51.984;5.872;2024-02-26T14:32:12;6.60;99.90
39019;DHT22;24786;51.984;5.872;2024-02-26T14:34:37;6.70;99.90
39019;DHT22;24786;51.984;5.872;2024-02-26T14:37:03;6.60;99.90
39019;DHT22;24786;51.984;5.872;2024-02-26T14:39:30;6.60;99.90
39019;DHT22;24786;51.984;5.872;2024-02-26T14:41:57;6.60;99.90
39019;DHT22;24786;51.984;5.872;2024-02-26T14:44:23;6.60;99.90
39019;DHT22;24786;51.984;5.872;2024-02-26T14:46:49;6.70;99.90
39019;DHT22;24786;51.984;5.872;2024-02-26T14:49:15;6.70;99.90
39019;DHT22;24786;51.984;5.872;2024-02-26T14:51:40;6.70;99.90
39019;DHT22;24786;51.984;5.872;2024-02-26T14:54:07;6.70;99.90
39019;DHT22;24786;51.984;5.872;2024-02-26T14:56:32;6.70;99.90
39019;DHT22;24786;51.984;5.872;2024-02-26T14:58:58;6.70;99.90
39019;DHT22;24786;51.984;5.872;2024-02-26T15:01:24;6.70;99.90
39019;DHT22;24786;51.984;5.872;2024-02-26T15:03:49;6.70;99.90
39019;DHT22;24786;51.984;5.872;2024-02-26T15:06:15;6.70;99.90
39019;DHT22;24786;51.984;5.872;2024-02-26T15:08:40;6.70;99.90
39019;DHT22;24786;51.984;5.872;2024-02-26T15:11:06;6.70;99.90
39019;DHT22;24786;51.984;5.872;2024-02-26T15:13:33;6.60;99.90
39019;DHT22;24786;51.984;5.872;2024-02-26T15:15:59;6.60;99.90
39019;DHT22;24786;51.984;5.872;2024-02-26T15:18:24;6.60;99.90
39019;DHT22;24786;51.984;5.872;2024-02-26T15:20:52;6.50;99.90
39019;DHT22;24786;51.984;5.872;2024-02-26T15:23:18;6.50;99.90
39019;DHT22;24786;51.984;5.872;2024-02-26T15:25:44;6.50;99.90
39019;DHT22;24786;51.984;5.872;2024-02-26T15:28:09;6.40;99.90
39019;DHT22;24786;51.984;5.872;2024-02-26T15:30:36;6.40;99.90
39019;DHT22;24786;51.984;5.872;2024-02-26T15:33:02;6.40;99.90
39019;DHT22;24786;51.984;5.872;2024-02-26T15:35:28;6.40;99.90
39019;DHT22;24786;51.984;5.872;2024-02-26T15:37:53;6.40;99.90
39019;DHT22;24786;51.984;5.872;2024-02-26T15:40:19;6.40;99.90
39019;DHT22;24786;51.984;5.872;2024-02-26T15:42:46;6.40;99.90
39019;DHT22;24786;51.984;5.872;2024-02-26T15:45:11;6.30;99.90
39019;DHT22;24786;51.984;5.872;2024-02-26T15:47:37;6.30;99.90
39019;DHT22;24786;51.984;5.872;2024-02-26T15:50:03;6.30;99.90